sensor_id;sensor_type;location;lat;lon;timestamp;temperature;humidity
23079;DHT22;11707;50.830;4.364;2023-03-01T00:00:02;2.40;1.00
23079;DHT22;11707;50.830;4.364;2023-03-01T00:02:28;2.50;21.40
23079;DHT22;11707;50.830;4.364;2023-03-01T00:04:54;2.50;1.00
23079;DHT22;11707;50.830;4.364;2023-03-01T00:07:20;2.50;24.30
23079;DHT22;11707;50.830;4.364;2023-03-01T00:09:45;2.50;99.90
23079;DHT22;11707;50.830;4.364;2023-03-01T00:12:11;2.40;99.90
23079;DHT22;11707;50.830;4.364;2023-03-01T00:14:37;2.40;99.90
23079;DHT22;11707;50.830;4.364;2023-03-01T00:17:03;2.30;99.90
23079;DHT22;11707;50.830;4.364;2023-03-01T00:19:28;2.20;1.00
23079;DHT22;11707;50.830;4.364;2023-03-01T00:21:54;2.40;1.00
23079;DHT22;11707;50.830;4.364;2023-03-01T00:24:20;2.40;99.90
23079;DHT22;11707;50.830;4.364;2023-03-01T00:26:45;2.40;99.90
23079;DHT22;11707;50.830;4.364;2023-03-01T00:29:12;2.40;99.90
23079;DHT22;11707;50.830;4.364;2023-03-01T00:31:37;2.20;10.70
23079;DHT22;11707;50.830;4.364;2023-03-01T00:34:04;2.20;99.90
23079;DHT22;11707;50.830;4.364;2023-03-01T00:36:33;2.20;99.90
23079;DHT22;11707;50.830;4.364;2023-03-01T00:39:00;2.10;99.90
23079;DHT22;11707;50.830;4.364;2023-03-01T00:41:26;2.30;99.90
23079;DHT22;11707;50.830;4.364;2023-03-01T00:43:53;2.20;99.90
23079;DHT22;11707;50.830;4.364;2023-03-01T00:46:22;2.20;99.90
23079;DHT22;11707;50.830;4.364;2023-03-01T00:48:48;2.30;99.90
23079;DHT22;11707;50.830;4.364;2023-03-01T00:51:21;2.20;99.90
23079;DHT22;11707;50.830;4.364;2023-03-01T00:53:49;2.30;99.90
23079;DHT22;11707;50.830;4.364;2023-03-01T00:56:17;2.30;99.90
23079;DHT22;11707;50.830;4.364;2023-03-01T00:58:44;2.30;99.90
23079;DHT22;11707;50.830;4.364;2023-03-01T01:01:10;2.30;99.90
23079;DHT22;11707;50.830;4.364;2023-03-01T01:03:50;2.30;99.90
23079;DHT22;11707;50.830;4.364;2023-03-01T01:06:20;2.30;88.90
23079;DHT22;11707;50.830;4.364;2023-03-01T01:08:47;2.40;1.00
23079;DHT22;11707;50.830;4.364;2023-03-01T01:11:13;2.40;99.90
23079;DHT22;11707;50.830;4.364;2023-03-01T01:13:40;2.20;1.00
23079;DHT22;11707;50.830;4.364;2023-03-01T01:16:07;2.00;99.90
23079;DHT22;11707;50.830;4.364;2023-03-01T01:18:33;2.00;99.90
23079;DHT22;11707;50.830;4.364;2023-03-01T01:21:07;1.90;99.90
23079;DHT22;11707;50.830;4.364;2023-03-01T01:23:33;1.90;1.00
23079;DHT22;11707;50.830;4.364;2023-03-01T01:26:13;1.90;1.00
23079;DHT22;11707;50.830;4.364;2023-03-01T01:28:39;1.80;15.40
23079;DHT22;11707;50.830;4.364;2023-03-01T01:31:05;1.80;22.80
23079;DHT22;11707;50.830;4.364;2023-03-01T01:33:34;1.90;1.00
23079;DHT22;11707;50.830;4.364;2023-03-01T01:36:00;1.90;1.00
23079;DHT22;11707;50.830;4.364;2023-03-01T01:38:28;1.90;1.00
23079;DHT22;11707;50.830;4.364;2023-03-01T01:40:56;1.90;1.00
23079;DHT22;11707;50.830;4.364;2023-03-01T01:43:31;1.90;1.00
23079;DHT22;11707;50.830;4.364;2023-03-01T01:46:05;1.90;1.00
23079;DHT22;11707;50.830;4.364;2023-03-01T01:48:41;1.90;1.00
23079;DHT22;11707;50.830;4.364;2023-03-01T01:51:20;2.00;1.00
23079;DHT22;11707;50.830;4.364;2023-03-01T01:53:53;1.90;1.00
23079;DHT22;11707;50.830;4.364;2023-03-01T01:56:20;2.00;1.00
23079;DHT22;11707;50.830;4.364;2023-03-01T01:58:51;1.90;1.00
23079;DHT22;11707;50.830;4.364;2023-03-01T02:01:19;1.90;1.00
23079;DHT22;11707;50.830;4.364;2023-03-01T02:03:46;1.80;1.00
23079;DHT22;11707;50.830;4.364;2023-03-01T02:06:20;1.70;27.00
23079;DHT22;11707;50.830;4.364;2023-03-01T02:08:49;1.70;99.90
23079;DHT22;11707;50.830;4.364;2023-03-01T02:11:17;1.60;99.90
23079;DHT22;11707;50.830;4.364;2023-03-01T02:13:44;1.60;99.90
23079;DHT22;11707;50.830;4.364;2023-03-01T02:16:12;1.50;99.90
23079;DHT22;11707;50.830;4.364;2023-03-01T02:18:40;1.40;99.90
23079;DHT22;11707;50.830;4.364;2023-03-01T02:23:49;1.40;99.90
23079;DHT22;11707;50.830;4.364;2023-03-01T02:28:50;1.50;99.90
23079;DHT22;11707;50.830;4.364;2023-03-01T02:31:19;1.50;99.90
23079;DHT22;11707;50.830;4.364;2023-03-01T02:34:05;1.50;99.90
23079;DHT22;11707;50.830;4.364;2023-03-01T02:36:38;1.60;99.90
23079;DHT22;11707;50.830;4.364;2023-03-01T02:39:08;1.70;99.90
23079;DHT22;11707;50.830;4.364;2023-03-01T02:41:42;1.70;99.90
23079;DHT22;11707;50.830;4.364;2023-03-01T02:44:08;1.70;99.90
23079;DHT22;11707;50.830;4.364;2023-03-01T02:46:42;1.60;99.90
23079;DHT22;11707;50.830;4.364;2023-03-01T02:49:27;1.60;99.90
23079;DHT22;11707;50.830;4.364;2023-03-01T02:52:08;1.70;99.90
23079;DHT22;11707;50.830;4.364;2023-03-01T02:54:49;1.70;99.90
23079;DHT22;11707;50.830;4.364;2023-03-01T02:57:19;1.60;99.90
23079;DHT22;11707;50.830;4.364;2023-03-01T02:59:44;1.70;99.90
23079;DHT22;11707;50.830;4.364;2023-03-01T03:02:29;1.60;99.90
23079;DHT22;11707;50.830;4.364;2023-03-01T03:05:12;1.60;99.90
23079;DHT22;11707;50.830;4.364;2023-03-01T03:07:43;1.50;99.90
23079;DHT22;11707;50.830;4.364;2023-03-01T03:10:16;1.50;99.90
23079;DHT22;11707;50.830;4.364;2023-03-01T03:12:48;1.30;99.90
23079;DHT22;11707;50.830;4.364;2023-03-01T03:15:14;1.30;99.90
23079;DHT22;11707;50.830;4.364;2023-03-01T03:17:41;1.10;99.90
23079;DHT22;11707;50.830;4.364;2023-03-01T03:20:11;1.20;99.90
23079;DHT22;11707;50.830;4.364;2023-03-01T03:22:41;1.20;99.90
23079;DHT22;11707;50.830;4.364;2023-03-01T03:25:08;1.30;99.90
23079;DHT22;11707;50.830;4.364;2023-03-01T03:27:41;1.40;99.90
23079;DHT22;11707;50.830;4.364;2023-03-01T03:30:10;1.30;99.90
23079;DHT22;11707;50.830;4.364;2023-03-01T03:32:41;1.30;99.90
23079;DHT22;11707;50.830;4.364;2023-03-01T03:35:08;1.20;99.90
23079;DHT22;11707;50.830;4.364;2023-03-01T03:37:39;1.30;99.90
23079;DHT22;11707;50.830;4.364;2023-03-01T03:40:24;1.20;99.90
23079;DHT22;11707;50.830;4.364;2023-03-01T03:42:50;1.30;99.90
23079;DHT22;11707;50.830;4.364;2023-03-01T03:45:17;1.20;99.90
23079;DHT22;11707;50.830;4.364;2023-03-01T03:47:44;1.20;99.90
23079;DHT22;11707;50.830;4.364;2023-03-01T03:50:15;1.20;99.90
23079;DHT22;11707;50.830;4.364;2023-03-01T03:52:41;1.10;99.90
23079;DHT22;11707;50.830;4.364;2023-03-01T03:55:12;1.00;99.90
23079;DHT22;11707;50.830;4.364;2023-03-01T03:57:38;1.00;99.90
23079;DHT22;11707;50.830;4.364;2023-03-01T04:00:08;1.00;99.90
23079;DHT22;11707;50.830;4.364;2023-03-01T04:02:43;0.90;99.90
23079;DHT22;11707;50.830;4.364;2023-03-01T04:05:10;0.90;99.90
23079;DHT22;11707;50.830;4.364;2023-03-01T04:07:40;1.00;99.90
23079;DHT22;11707;50.830;4.364;2023-03-01T04:10:12;0.90;99.90
23079;DHT22;11707;50.830;4.364;2023-03-01T04:12:37;1.00;99.90
23079;DHT22;11707;50.830;4.364;2023-03-01T04:15:05;0.90;1.00
23079;DHT22;11707;50.830;4.364;2023-03-01T04:17:43;0.80;1.00
23079;DHT22;11707;50.830;4.364;2023-03-01T04:20:30;0.80;1.00
23079;DHT22;11707;50.830;4.364;2023-03-01T04:23:05;0.70;1.00
23079;DHT22;11707;50.830;4.364;2023-03-01T04:28:20;0.60;1.00
23079;DHT22;11707;50.830;4.364;2023-03-01T04:30:46;0.50;1.00
23079;DHT22;11707;50.830;4.364;2023-03-01T04:33:14;0.60;1.00
23079;DHT22;11707;50.830;4.364;2023-03-01T04:35:42;0.60;1.00
23079;DHT22;11707;50.830;4.364;2023-03-01T04:38:11;0.50;1.00
23079;DHT22;11707;50.830;4.364;2023-03-01T04:40:37;0.60;1.00
23079;DHT22;11707;50.830;4.364;2023-03-01T04:43:03;0.60;1.00
23079;DHT22;11707;50.830;4.364;2023-03-01T04:45:31;0.60;1.00
23079;DHT22;11707;50.830;4.364;2023-03-01T04:47:56;0.50;1.00
23079;DHT22;11707;50.830;4.364;2023-03-01T04:50:24;0.60;1.00
23079;DHT22;11707;50.830;4.364;2023-03-01T04:52:51;0.60;1.00
23079;DHT22;11707;50.830;4.364;2023-03-01T04:55:17;0.60;1.00
23079;DHT22;11707;50.830;4.364;2023-03-01T04:57:43;0.60;1.00
23079;DHT22;11707;50.830;4.364;2023-03-01T05:00:11;0.60;1.00
23079;DHT22;11707;50.830;4.364;2023-03-01T05:02:53;0.70;1.00
23079;DHT22;11707;50.830;4.364;2023-03-01T05:07:55;0.60;1.00
23079;DHT22;11707;50.830;4.364;2023-03-01T05:10:21;0.50;1.00
23079;DHT22;11707;50.830;4.364;2023-03-01T05:12:48;0.50;1.00
23079;DHT22;11707;50.830;4.364;2023-03-01T05:15:16;0.40;1.00
23079;DHT22;11707;50.830;4.364;2023-03-01T05:17:41;0.30;1.00
23079;DHT22;11707;50.830;4.364;2023-03-01T05:20:08;0.30;1.00
23079;DHT22;11707;50.830;4.364;2023-03-01T05:22:37;0.40;1.00
23079;DHT22;11707;50.830;4.364;2023-03-01T05:25:04;0.40;1.00
23079;DHT22;11707;50.830;4.364;2023-03-01T05:27:32;0.40;1.00
23079;DHT22;11707;50.830;4.364;2023-03-01T05:30:03;0.30;1.00
23079;DHT22;11707;50.830;4.364;2023-03-01T05:32:42;0.40;1.00
23079;DHT22;11707;50.830;4.364;2023-03-01T05:35:10;0.40;1.00
23079;DHT22;11707;50.830;4.364;2023-03-01T05:37:42;0.30;1.00
23079;DHT22;11707;50.830;4.364;2023-03-01T05:40:13;0.20;1.00
23079;DHT22;11707;50.830;4.364;2023-03-01T05:42:51;0.30;1.00
23079;DHT22;11707;50.830;4.364;2023-03-01T05:45:17;0.20;1.00
23079;DHT22;11707;50.830;4.364;2023-03-01T05:47:46;0.30;1.00
23079;DHT22;11707;50.830;4.364;2023-03-01T05:50:20;0.30;1.00
23079;DHT22;11707;50.830;4.364;2023-03-01T05:52:51;0.30;1.00
23079;DHT22;11707;50.830;4.364;2023-03-01T05:55:20;0.30;1.00
23079;DHT22;11707;50.830;4.364;2023-03-01T05:57:47;0.40;1.00
23079;DHT22;11707;50.830;4.364;2023-03-01T06:00:14;0.50;1.00
23079;DHT22;11707;50.830;4.364;2023-03-01T06:02:40;0.30;1.00
23079;DHT22;11707;50.830;4.364;2023-03-01T06:05:08;0.20;1.00
23079;DHT22;11707;50.830;4.364;2023-03-01T06:07:34;0.10;1.00
23079;DHT22;11707;50.830;4.364;2023-03-01T06:10:01;0.00;1.00
23079;DHT22;11707;50.830;4.364;2023-03-01T06:12:33;0.00;1.00
23079;DHT22;11707;50.830;4.364;2023-03-01T06:15:00;0.00;1.00
23079;DHT22;11707;50.830;4.364;2023-03-01T06:17:30;0.10;1.00
23079;DHT22;11707;50.830;4.364;2023-03-01T06:19:56;0.10;1.00
23079;DHT22;11707;50.830;4.364;2023-03-01T06:22:22;0.20;1.00
23079;DHT22;11707;50.830;4.364;2023-03-01T06:24:47;0.30;1.00
23079;DHT22;11707;50.830;4.364;2023-03-01T06:27:16;0.10;1.00
23079;DHT22;11707;50.830;4.364;2023-03-01T06:29:41;0.10;1.00
23079;DHT22;11707;50.830;4.364;2023-03-01T06:32:07;0.00;1.00
23079;DHT22;11707;50.830;4.364;2023-03-01T06:34:33;0.00;1.00
23079;DHT22;11707;50.830;4.364;2023-03-01T06:37:01;0.00;1.00
23079;DHT22;11707;50.830;4.364;2023-03-01T06:39:31;0.00;1.00
23079;DHT22;11707;50.830;4.364;2023-03-01T06:41:56;0.00;1.00
23079;DHT22;11707;50.830;4.364;2023-03-01T06:44:22;0.20;1.00
23079;DHT22;11707;50.830;4.364;2023-03-01T06:46:48;0.10;1.00
23079;DHT22;11707;50.830;4.364;2023-03-01T06:49:13;0.00;1.00
23079;DHT22;11707;50.830;4.364;2023-03-01T06:51:44;0.00;1.00
23079;DHT22;11707;50.830;4.364;2023-03-01T06:54:10;0.00;1.00
23079;DHT22;11707;50.830;4.364;2023-03-01T06:56:35;0.00;1.00
23079;DHT22;11707;50.830;4.364;2023-03-01T06:59:01;0.10;1.00
23079;DHT22;11707;50.830;4.364;2023-03-01T07:01:31;0.00;1.00
23079;DHT22;11707;50.830;4.364;2023-03-01T07:03:57;0.10;1.00
23079;DHT22;11707;50.830;4.364;2023-03-01T07:06:23;0.10;1.00
23079;DHT22;11707;50.830;4.364;2023-03-01T07:08:51;0.00;1.00
23079;DHT22;11707;50.830;4.364;2023-03-01T07:11:17;0.00;1.00
23079;DHT22;11707;50.830;4.364;2023-03-01T07:13:45;0.00;1.00
23079;DHT22;11707;50.830;4.364;2023-03-01T07:16:13;0.00;1.00
23079;DHT22;11707;50.830;4.364;2023-03-01T07:18:40;0.00;1.00
23079;DHT22;11707;50.830;4.364;2023-03-01T07:21:12;0.00;1.00
23079;DHT22;11707;50.830;4.364;2023-03-01T07:23:38;0.00;1.00
23079;DHT22;11707;50.830;4.364;2023-03-01T07:26:03;0.10;1.00
23079;DHT22;11707;50.830;4.364;2023-03-01T07:28:32;0.20;1.00
23079;DHT22;11707;50.830;4.364;2023-03-01T07:31:04;0.20;1.00
23079;DHT22;11707;50.830;4.364;2023-03-01T07:33:30;0.40;1.00
23079;DHT22;11707;50.830;4.364;2023-03-01T07:36:00;0.60;1.00
23079;DHT22;11707;50.830;4.364;2023-03-01T07:38:27;0.60;1.00
23079;DHT22;11707;50.830;4.364;2023-03-01T07:40:57;0.70;1.00
23079;DHT22;11707;50.830;4.364;2023-03-01T07:43:23;0.60;1.00
23079;DHT22;11707;50.830;4.364;2023-03-01T07:45:49;0.70;1.00
23079;DHT22;11707;50.830;4.364;2023-03-01T07:48:17;0.80;1.00
23079;DHT22;11707;50.830;4.364;2023-03-01T07:50:42;0.90;1.00
23079;DHT22;11707;50.830;4.364;2023-03-01T07:53:11;0.80;1.00
23079;DHT22;11707;50.830;4.364;2023-03-01T07:55:37;0.80;1.00
23079;DHT22;11707;50.830;4.364;2023-03-01T07:58:03;0.80;1.00
23079;DHT22;11707;50.830;4.364;2023-03-01T08:00:30;0.80;1.00
23079;DHT22;11707;50.830;4.364;2023-03-01T08:02:59;0.80;1.00
23079;DHT22;11707;50.830;4.364;2023-03-01T08:05:26;0.70;1.00
23079;DHT22;11707;50.830;4.364;2023-03-01T08:07:54;0.70;1.00
23079;DHT22;11707;50.830;4.364;2023-03-01T08:10:20;0.80;1.00
23079;DHT22;11707;50.830;4.364;2023-03-01T08:12:46;0.90;1.00
23079;DHT22;11707;50.830;4.364;2023-03-01T08:15:12;1.00;1.00
23079;DHT22;11707;50.830;4.364;2023-03-01T08:17:40;1.10;1.00
23079;DHT22;11707;50.830;4.364;2023-03-01T08:20:11;1.10;1.00
23079;DHT22;11707;50.830;4.364;2023-03-01T08:22:40;1.10;1.00
23079;DHT22;11707;50.830;4.364;2023-03-01T08:25:06;1.10;1.00
23079;DHT22;11707;50.830;4.364;2023-03-01T08:27:31;1.20;1.00
23079;DHT22;11707;50.830;4.364;2023-03-01T08:29:57;1.30;1.00
23079;DHT22;11707;50.830;4.364;2023-03-01T08:32:23;1.30;1.00
23079;DHT22;11707;50.830;4.364;2023-03-01T08:34:51;1.40;1.00
23079;DHT22;11707;50.830;4.364;2023-03-01T08:37:16;1.40;1.00
23079;DHT22;11707;50.830;4.364;2023-03-01T08:39:42;1.50;99.90
23079;DHT22;11707;50.830;4.364;2023-03-01T08:42:08;1.40;99.90
23079;DHT22;11707;50.830;4.364;2023-03-01T08:44:36;1.60;99.90
23079;DHT22;11707;50.830;4.364;2023-03-01T08:47:02;1.50;99.90
23079;DHT22;11707;50.830;4.364;2023-03-01T08:49:29;1.60;99.90
23079;DHT22;11707;50.830;4.364;2023-03-01T08:51:55;1.70;99.90
23079;DHT22;11707;50.830;4.364;2023-03-01T08:54:23;1.80;99.90
23079;DHT22;11707;50.830;4.364;2023-03-01T08:56:49;1.80;99.90
23079;DHT22;11707;50.830;4.364;2023-03-01T08:59:16;1.80;99.90
23079;DHT22;11707;50.830;4.364;2023-03-01T09:01:42;1.90;99.90
23079;DHT22;11707;50.830;4.364;2023-03-01T09:04:15;1.90;99.90
23079;DHT22;11707;50.830;4.364;2023-03-01T09:06:41;1.80;99.90
23079;DHT22;11707;50.830;4.364;2023-03-01T09:09:16;2.00;99.90
23079;DHT22;11707;50.830;4.364;2023-03-01T09:11:44;2.20;99.90
23079;DHT22;11707;50.830;4.364;2023-03-01T09:14:17;2.30;99.90
23079;DHT22;11707;50.830;4.364;2023-03-01T09:16:46;2.20;99.90
23079;DHT22;11707;50.830;4.364;2023-03-01T09:19:12;2.20;99.90
23079;DHT22;11707;50.830;4.364;2023-03-01T09:21:37;2.30;99.90
23079;DHT22;11707;50.830;4.364;2023-03-01T09:24:08;2.30;99.90
23079;DHT22;11707;50.830;4.364;2023-03-01T09:26:37;2.30;99.90
23079;DHT22;11707;50.830;4.364;2023-03-01T09:29:04;2.40;99.90
23079;DHT22;11707;50.830;4.364;2023-03-01T09:31:30;2.40;99.90
23079;DHT22;11707;50.830;4.364;2023-03-01T09:33:56;2.60;99.90
23079;DHT22;11707;50.830;4.364;2023-03-01T09:36:23;2.70;99.90
23079;DHT22;11707;50.830;4.364;2023-03-01T09:38:51;2.60;99.90
23079;DHT22;11707;50.830;4.364;2023-03-01T09:41:32;2.70;99.90
23079;DHT22;11707;50.830;4.364;2023-03-01T09:44:05;2.70;42.60
23079;DHT22;11707;50.830;4.364;2023-03-01T09:46:41;2.90;40.30
23079;DHT22;11707;50.830;4.364;2023-03-01T09:49:18;3.10;1.00
23079;DHT22;11707;50.830;4.364;2023-03-01T09:52:28;3.10;1.00
23079;DHT22;11707;50.830;4.364;2023-03-01T09:54:57;3.20;1.00
23079;DHT22;11707;50.830;4.364;2023-03-01T10:00:20;3.40;99.90
23079;DHT22;11707;50.830;4.364;2023-03-01T10:02:57;3.50;99.90
23079;DHT22;11707;50.830;4.364;2023-03-01T10:05:49;3.60;99.90
23079;DHT22;11707;50.830;4.364;2023-03-01T10:08:40;3.50;99.90
23079;DHT22;11707;50.830;4.364;2023-03-01T10:11:37;3.60;1.00
23079;DHT22;11707;50.830;4.364;2023-03-01T10:16:51;3.70;1.00
23079;DHT22;11707;50.830;4.364;2023-03-01T10:19:40;3.60;99.90
23079;DHT22;11707;50.830;4.364;2023-03-01T10:22:22;3.40;1.00
23079;DHT22;11707;50.830;4.364;2023-03-01T10:24:51;3.60;91.00
23079;DHT22;11707;50.830;4.364;2023-03-01T10:27:26;3.80;1.00
23079;DHT22;11707;50.830;4.364;2023-03-01T10:32:32;3.90;99.90
23079;DHT22;11707;50.830;4.364;2023-03-01T10:34:58;4.00;99.90
23079;DHT22;11707;50.830;4.364;2023-03-01T10:37:26;4.00;1.00
23079;DHT22;11707;50.830;4.364;2023-03-01T10:40:08;4.20;99.90
23079;DHT22;11707;50.830;4.364;2023-03-01T10:43:02;4.40;94.20
23079;DHT22;11707;50.830;4.364;2023-03-01T10:45:37;4.60;1.00
23079;DHT22;11707;50.830;4.364;2023-03-01T10:48:26;4.70;99.90
23079;DHT22;11707;50.830;4.364;2023-03-01T10:53:26;4.90;99.90
23079;DHT22;11707;50.830;4.364;2023-03-01T10:58:24;4.70;14.80
23079;DHT22;11707;50.830;4.364;2023-03-01T11:00:55;4.60;42.20
23079;DHT22;11707;50.830;4.364;2023-03-01T11:03:32;4.70;40.00
23079;DHT22;11707;50.830;4.364;2023-03-01T11:06:00;4.80;1.00
23079;DHT22;11707;50.830;4.364;2023-03-01T11:08:34;4.90;99.90
23079;DHT22;11707;50.830;4.364;2023-03-01T11:11:24;4.90;69.10
23079;DHT22;11707;50.830;4.364;2023-03-01T11:13:56;4.90;1.00
23079;DHT22;11707;50.830;4.364;2023-03-01T11:21:28;5.00;99.90
23079;DHT22;11707;50.830;4.364;2023-03-01T11:23:57;5.30;99.90
23079;DHT22;11707;50.830;4.364;2023-03-01T11:26:27;5.50;21.50
23079;DHT22;11707;50.830;4.364;2023-03-01T11:28:57;5.60;1.00
23079;DHT22;11707;50.830;4.364;2023-03-01T11:31:24;5.50;99.90
23079;DHT22;11707;50.830;4.364;2023-03-01T11:34:02;5.50;99.90
23079;DHT22;11707;50.830;4.364;2023-03-01T11:39:38;5.50;99.90
23079;DHT22;11707;50.830;4.364;2023-03-01T11:42:21;5.40;99.90
23079;DHT22;11707;50.830;4.364;2023-03-01T11:44:54;5.50;99.90
23079;DHT22;11707;50.830;4.364;2023-03-01T11:58:21;5.50;87.00
23079;DHT22;11707;50.830;4.364;2023-03-01T12:03:33;5.50;99.90
23079;DHT22;11707;50.830;4.364;2023-03-01T12:12:00;6.10;1.00
23079;DHT22;11707;50.830;4.364;2023-03-01T12:32:08;6.40;99.90
23079;DHT22;11707;50.830;4.364;2023-03-01T12:42:58;6.40;68.80
23079;DHT22;11707;50.830;4.364;2023-03-01T12:50:51;6.40;1.00
23079;DHT22;11707;50.830;4.364;2023-03-01T12:53:24;6.40;1.00
23079;DHT22;11707;50.830;4.364;2023-03-01T12:55:58;6.60;1.00
23079;DHT22;11707;50.830;4.364;2023-03-01T13:04:27;6.80;1.00
23079;DHT22;11707;50.830;4.364;2023-03-01T13:07:27;6.70;1.00
23079;DHT22;11707;50.830;4.364;2023-03-01T13:13:02;6.90;1.00
23079;DHT22;11707;50.830;4.364;2023-03-01T13:15:31;6.80;99.90
23079;DHT22;11707;50.830;4.364;2023-03-01T13:26:13;6.90;99.90
23079;DHT22;11707;50.830;4.364;2023-03-01T13:28:55;6.90;99.90
23079;DHT22;11707;50.830;4.364;2023-03-01T13:33:57;6.90;99.90
23079;DHT22;11707;50.830;4.364;2023-03-01T13:39:03;7.00;99.90
23079;DHT22;11707;50.830;4.364;2023-03-01T13:46:53;7.00;99.90
23079;DHT22;11707;50.830;4.364;2023-03-01T13:49:23;7.20;99.90
23079;DHT22;11707;50.830;4.364;2023-03-01T13:51:51;7.40;99.90
23079;DHT22;11707;50.830;4.364;2023-03-01T13:54:32;8.00;99.90
23079;DHT22;11707;50.830;4.364;2023-03-01T13:56:59;9.60;99.90
23079;DHT22;11707;50.830;4.364;2023-03-01T13:59:25;11.30;1.00
23079;DHT22;11707;50.830;4.364;2023-03-01T14:01:57;12.00;1.00
23079;DHT22;11707;50.830;4.364;2023-03-01T14:04:29;12.90;99.90
23079;DHT22;11707;50.830;4.364;2023-03-01T14:07:32;13.10;99.90
23079;DHT22;11707;50.830;4.364;2023-03-01T14:10:04;13.10;99.90
23079;DHT22;11707;50.830;4.364;2023-03-01T14:20:41;14.20;99.90
23079;DHT22;11707;50.830;4.364;2023-03-01T14:23:18;15.00;99.90
23079;DHT22;11707;50.830;4.364;2023-03-01T14:25:49;14.70;99.90
23079;DHT22;11707;50.830;4.364;2023-03-01T14:28:31;14.10;99.90
23079;DHT22;11707;50.830;4.364;2023-03-01T14:31:29;14.20;99.90
23079;DHT22;11707;50.830;4.364;2023-03-01T14:33:55;14.20;99.90
23079;DHT22;11707;50.830;4.364;2023-03-01T14:36:26;13.50;99.90
23079;DHT22;11707;50.830;4.364;2023-03-01T14:38:52;14.40;99.90
23079;DHT22;11707;50.830;4.364;2023-03-01T14:41:22;14.50;99.90
23079;DHT22;11707;50.830;4.364;2023-03-01T14:43:54;14.90;99.90
23079;DHT22;11707;50.830;4.364;2023-03-01T14:46:38;14.80;99.90
23079;DHT22;11707;50.830;4.364;2023-03-01T14:49:17;13.40;99.90
23079;DHT22;11707;50.830;4.364;2023-03-01T14:55:16;9.60;99.90
23079;DHT22;11707;50.830;4.364;2023-03-01T14:57:44;8.60;99.90
23079;DHT22;11707;50.830;4.364;2023-03-01T15:02:43;8.00;99.90
23079;DHT22;11707;50.830;4.364;2023-03-01T15:05:09;7.80;99.90
23079;DHT22;11707;50.830;4.364;2023-03-01T15:07:38;7.70;99.90
23079;DHT22;11707;50.830;4.364;2023-03-01T15:10:06;7.60;99.90
23079;DHT22;11707;50.830;4.364;2023-03-01T15:12:40;7.40;99.90
23079;DHT22;11707;50.830;4.364;2023-03-01T15:17:52;7.50;99.90
23079;DHT22;11707;50.830;4.364;2023-03-01T15:20:25;7.40;1.00
23079;DHT22;11707;50.830;4.364;2023-03-01T15:22:56;7.20;1.00
23079;DHT22;11707;50.830;4.364;2023-03-01T15:25:25;7.20;1.00
23079;DHT22;11707;50.830;4.364;2023-03-01T15:27:53;7.20;1.00
23079;DHT22;11707;50.830;4.364;2023-03-01T15:30:36;7.10;1.00
23079;DHT22;11707;50.830;4.364;2023-03-01T15:35:53;7.10;1.00
23079;DHT22;11707;50.830;4.364;2023-03-01T15:38:54;7.10;1.00
23079;DHT22;11707;50.830;4.364;2023-03-01T15:41:30;7.00;1.00
23079;DHT22;11707;50.830;4.364;2023-03-01T15:43:57;7.10;1.00
23079;DHT22;11707;50.830;4.364;2023-03-01T15:48:57;7.00;1.00
23079;DHT22;11707;50.830;4.364;2023-03-01T15:51:36;7.10;1.00
23079;DHT22;11707;50.830;4.364;2023-03-01T15:54:18;7.30;1.00
23079;DHT22;11707;50.830;4.364;2023-03-01T15:56:48;7.30;1.00
23079;DHT22;11707;50.830;4.364;2023-03-01T15:59:14;7.10;1.00
23079;DHT22;11707;50.830;4.364;2023-03-01T16:01:43;7.10;1.00
23079;DHT22;11707;50.830;4.364;2023-03-01T16:04:13;7.10;1.00
23079;DHT22;11707;50.830;4.364;2023-03-01T16:06:46;7.00;1.00
23079;DHT22;11707;50.830;4.364;2023-03-01T16:09:12;6.90;1.00
23079;DHT22;11707;50.830;4.364;2023-03-01T16:11:38;6.90;1.00
23079;DHT22;11707;50.830;4.364;2023-03-01T16:14:06;6.80;1.00
23079;DHT22;11707;50.830;4.364;2023-03-01T16:16:31;6.80;1.00
23079;DHT22;11707;50.830;4.364;2023-03-01T16:18:58;6.70;1.00
23079;DHT22;11707;50.830;4.364;2023-03-01T16:21:24;6.50;1.00
23079;DHT22;11707;50.830;4.364;2023-03-01T16:23:52;6.60;1.00
23079;DHT22;11707;50.830;4.364;2023-03-01T16:26:18;6.60;1.00
23079;DHT22;11707;50.830;4.364;2023-03-01T16:28:45;6.60;1.00
23079;DHT22;11707;50.830;4.364;2023-03-01T16:31:11;6.60;1.00
23079;DHT22;11707;50.830;4.364;2023-03-01T16:33:39;6.80;1.00
23079;DHT22;11707;50.830;4.364;2023-03-01T16:36:10;6.70;1.00
23079;DHT22;11707;50.830;4.364;2023-03-01T16:38:36;6.70;21.00
23079;DHT22;11707;50.830;4.364;2023-03-01T16:41:02;6.80;30.90
23079;DHT22;11707;50.830;4.364;2023-03-01T16:43:29;6.70;37.10
23079;DHT22;11707;50.830;4.364;2023-03-01T16:45:55;6.80;48.10
23079;DHT22;11707;50.830;4.364;2023-03-01T16:48:23;6.70;48.60
23079;DHT22;11707;50.830;4.364;2023-03-01T16:50:59;6.60;45.80
23079;DHT22;11707;50.830;4.364;2023-03-01T16:53:26;6.70;51.40
23079;DHT22;11707;50.830;4.364;2023-03-01T16:55:58;6.70;50.20
23079;DHT22;11707;50.830;4.364;2023-03-01T16:58:24;6.70;42.10
23079;DHT22;11707;50.830;4.364;2023-03-01T17:00:54;6.70;52.80
23079;DHT22;11707;50.830;4.364;2023-03-01T17:03:24;6.50;83.60
23079;DHT22;11707;50.830;4.364;2023-03-01T17:05:51;6.40;99.90
23079;DHT22;11707;50.830;4.364;2023-03-01T17:08:17;6.50;99.90
23079;DHT22;11707;50.830;4.364;2023-03-01T17:10:43;6.40;99.90
23079;DHT22;11707;50.830;4.364;2023-03-01T17:13:09;6.40;99.90
23079;DHT22;11707;50.830;4.364;2023-03-01T17:15:40;6.40;99.90
23079;DHT22;11707;50.830;4.364;2023-03-01T17:18:06;6.30;99.90
23079;DHT22;11707;50.830;4.364;2023-03-01T17:20:32;6.20;99.90
23079;DHT22;11707;50.830;4.364;2023-03-01T17:22:58;6.10;99.90
23079;DHT22;11707;50.830;4.364;2023-03-01T17:25:26;6.30;99.90
23079;DHT22;11707;50.830;4.364;2023-03-01T17:27:52;6.20;99.90
23079;DHT22;11707;50.830;4.364;2023-03-01T17:30:18;6.10;99.90
23079;DHT22;11707;50.830;4.364;2023-03-01T17:32:44;6.20;99.90
23079;DHT22;11707;50.830;4.364;2023-03-01T17:35:10;6.20;1.00
23079;DHT22;11707;50.830;4.364;2023-03-01T17:37:39;6.00;99.90
23079;DHT22;11707;50.830;4.364;2023-03-01T17:40:05;6.10;99.90
23079;DHT22;11707;50.830;4.364;2023-03-01T17:42:32;6.10;99.90
23079;DHT22;11707;50.830;4.364;2023-03-01T17:44:58;6.00;99.90
23079;DHT22;11707;50.830;4.364;2023-03-01T17:47:24;5.90;1.00
23079;DHT22;11707;50.830;4.364;2023-03-01T17:49:50;5.90;1.00
23079;DHT22;11707;50.830;4.364;2023-03-01T17:52:16;5.90;1.00
23079;DHT22;11707;50.830;4.364;2023-03-01T17:54:42;5.80;1.00
23079;DHT22;11707;50.830;4.364;2023-03-01T17:57:10;5.80;1.00
23079;DHT22;11707;50.830;4.364;2023-03-01T17:59:37;5.70;1.00
23079;DHT22;11707;50.830;4.364;2023-03-01T18:02:03;5.70;1.00
23079;DHT22;11707;50.830;4.364;2023-03-01T18:04:29;5.70;1.00
23079;DHT22;11707;50.830;4.364;2023-03-01T18:06:59;5.80;1.00
23079;DHT22;11707;50.830;4.364;2023-03-01T18:09:28;5.90;1.00
23079;DHT22;11707;50.830;4.364;2023-03-01T18:11:55;5.80;1.00
23079;DHT22;11707;50.830;4.364;2023-03-01T18:14:20;5.90;1.00
23079;DHT22;11707;50.830;4.364;2023-03-01T18:16:49;5.70;1.00
23079;DHT22;11707;50.830;4.364;2023-03-01T18:19:17;5.70;1.00
23079;DHT22;11707;50.830;4.364;2023-03-01T18:21:43;5.70;1.00